createdAt,value
2019-03-26T00:00:45.608Z,14.68
2019-03-26T00:01:55.177Z,17.00
2019-03-26T00:02:59.995Z,14.68
2019-03-26T00:04:06.060Z,14.10
2019-03-26T00:05:11.878Z,15.83
2019-03-26T00:06:16.448Z,17.37
2019-03-26T00:07:20.903Z,14.90
2019-03-26T00:08:25.358Z,17.02
2019-03-26T00:09:29.816Z,16.32
2019-03-26T00:10:34.593Z,13.53
2019-03-26T00:11:39.369Z,17.73
2019-03-26T00:12:43.829Z,19.17
2019-03-26T00:13:48.290Z,20.60
2019-03-26T00:14:52.747Z,16.32
2019-03-26T00:15:57.215Z,17.57
2019-03-26T00:17:01.698Z,19.42
2019-03-26T00:18:06.228Z,18.60
2019-03-26T00:19:10.689Z,16.32
2019-03-26T00:20:15.167Z,19.52
2019-03-26T00:21:19.623Z,18.85
2019-03-26T00:22:24.398Z,22.95
2019-03-26T00:23:28.858Z,19.02
2019-03-26T00:24:33.675Z,18.25
2019-03-26T00:25:38.126Z,20.97
2019-03-26T00:26:42.605Z,16.90
2019-03-26T00:27:47.067Z,19.52
2019-03-26T00:28:51.853Z,20.92
2019-03-26T00:29:56.616Z,20.43
2019-03-26T00:31:01.463Z,20.65
2019-03-26T00:32:05.960Z,19.27
2019-03-26T00:33:10.927Z,22.95
2019-03-26T00:34:19.547Z,18.40
2019-03-26T00:35:21.592Z,20.25
2019-03-26T00:36:26.219Z,16.80
2019-03-26T00:37:31.658Z,18.67
2019-03-26T00:38:36.191Z,17.92
2019-03-26T00:39:40.786Z,20.35
2019-03-26T00:40:45.251Z,18.52
2019-03-26T00:41:49.752Z,22.05
2019-03-26T00:42:54.216Z,24.55
2019-03-26T00:43:59.667Z,23.92
2019-03-26T00:45:04.794Z,25.15
2019-03-26T00:46:09.263Z,24.25
2019-03-26T00:47:14.167Z,24.50
2019-03-26T00:48:18.631Z,23.77
2019-03-26T00:49:23.501Z,22.02
2019-03-26T00:50:27.964Z,30.43
2019-03-26T00:51:32.825Z,32.55
2019-03-26T00:52:37.351Z,27.60
2019-03-26T00:53:42.098Z,36.70
2019-03-26T00:54:46.562Z,37.83
2019-03-26T00:55:51.021Z,35.63
2019-03-26T00:56:55.525Z,33.23
2019-03-26T00:58:01.676Z,33.98
2019-03-26T00:59:06.672Z,39.90
2019-03-26T01:00:12.001Z,34.27
2019-03-26T01:01:16.810Z,41.95
2019-03-26T01:02:21.647Z,42.78
2019-03-26T01:03:26.110Z,39.33
2019-03-26T01:04:33.191Z,40.45
2019-03-26T01:05:36.875Z,38.45
2019-03-26T01:06:41.335Z,28.10
2019-03-26T01:07:45.857Z,40.12
2019-03-26T01:08:50.334Z,33.67
2019-03-26T01:09:54.820Z,32.35
2019-03-26T01:10:59.293Z,31.62
2019-03-26T01:12:03.877Z,34.38
2019-03-26T01:13:08.341Z,32.38
2019-03-26T01:14:13.780Z,31.48
2019-03-26T01:15:18.263Z,40.40
2019-03-26T01:16:23.112Z,30.32
2019-03-26T01:17:27.611Z,31.20
2019-03-26T01:18:32.406Z,31.75
2019-03-26T01:19:37.224Z,33.42
2019-03-26T01:20:41.694Z,32.93
2019-03-26T01:21:46.196Z,34.98
2019-03-26T01:22:50.657Z,30.62
2019-03-26T01:23:55.133Z,33.18
2019-03-26T01:24:59.599Z,30.60
2019-03-26T01:26:04.068Z,33.13
2019-03-26T01:27:08.575Z,32.05
2019-03-26T01:28:13.397Z,29.80
2019-03-26T01:29:19.044Z,34.90
2019-03-26T01:30:23.511Z,31.25
2019-03-26T01:31:28.007Z,33.90
2019-03-26T01:32:32.802Z,30.48
2019-03-26T01:33:37.286Z,30.80
2019-03-26T01:34:46.294Z,31.65
2019-03-26T01:35:47.922Z,32.08
2019-03-26T01:36:52.431Z,34.23
2019-03-26T01:37:56.903Z,34.27
2019-03-26T01:39:01.375Z,28.32
2019-03-26T01:40:07.383Z,32.05
2019-03-26T01:41:12.838Z,36.40
2019-03-26T01:42:17.340Z,33.30
2019-03-26T01:43:22.143Z,34.08
2019-03-26T01:44:26.613Z,34.08
2019-03-26T01:45:31.071Z,34.73
2019-03-26T01:46:35.578Z,38.63
2019-03-26T01:47:40.061Z,31.12
2019-03-26T01:48:44.663Z,35.25
2019-03-26T01:49:49.129Z,33.80
2019-03-26T01:50:53.589Z,37.13
2019-03-26T01:51:58.112Z,36.20
2019-03-26T01:53:02.567Z,48.05
2019-03-26T01:54:07.048Z,46.60
2019-03-26T01:55:11.589Z,42.85
2019-03-26T01:56:16.055Z,41.68
2019-03-26T01:57:20.930Z,36.93
2019-03-26T01:58:25.710Z,41.30
2019-03-26T01:59:30.181Z,33.33
2019-03-26T02:00:34.939Z,37.17
2019-03-26T02:01:39.440Z,40.88
2019-03-26T02:02:43.909Z,38.10
2019-03-26T02:03:48.723Z,39.98
2019-03-26T02:04:59.764Z,47.88
2019-03-26T02:06:00.340Z,41.68
2019-03-26T02:07:04.853Z,47.43
2019-03-26T02:08:09.362Z,48.83
2019-03-26T02:09:13.785Z,43.63
2019-03-26T02:10:18.247Z,44.05
2019-03-26T02:11:22.720Z,45.10
2019-03-26T02:12:27.216Z,40.33
2019-03-26T02:13:31.688Z,40.55
2019-03-26T02:14:36.151Z,43.30
2019-03-26T02:15:41.291Z,42.88
2019-03-26T02:16:46.113Z,44.77
2019-03-26T02:17:50.576Z,46.80
2019-03-26T02:18:55.046Z,46.02
2019-03-26T02:19:59.887Z,39.92
2019-03-26T02:21:05.113Z,36.55
2019-03-26T02:22:09.623Z,48.17
2019-03-26T02:23:14.571Z,44.33
2019-03-26T02:24:19.034Z,36.75
2019-03-26T02:25:23.562Z,42.43
2019-03-26T02:26:28.030Z,42.55
2019-03-26T02:27:32.519Z,51.60
2019-03-26T02:28:36.995Z,45.15
2019-03-26T02:29:41.452Z,49.25
2019-03-26T02:30:46.999Z,44.80
2019-03-26T02:31:51.857Z,47.93
2019-03-26T02:32:56.729Z,56.33
2019-03-26T02:34:01.257Z,46.35
2019-03-26T02:35:17.990Z,46.28
2019-03-26T02:36:12.025Z,43.28
2019-03-26T02:37:16.527Z,47.85
2019-03-26T02:38:21.023Z,48.80
2019-03-26T02:39:25.496Z,45.98
2019-03-26T02:40:29.962Z,47.60
2019-03-26T02:41:37.838Z,48.25
2019-03-26T02:42:40.767Z,47.13
2019-03-26T02:43:45.229Z,46.90
2019-03-26T02:44:49.700Z,51.05
2019-03-26T02:45:56.920Z,49.67
2019-03-26T02:47:01.805Z,45.35
2019-03-26T02:48:06.255Z,48.08
2019-03-26T02:49:11.118Z,42.58
2019-03-26T02:50:15.972Z,47.20
2019-03-26T02:51:21.778Z,45.17
2019-03-26T02:52:26.285Z,41.25
2019-03-26T02:53:30.749Z,40.80
2019-03-26T02:54:35.561Z,41.10
2019-03-26T02:55:40.438Z,42.60
2019-03-26T02:56:45.272Z,37.63
2019-03-26T02:57:50.087Z,49.23
2019-03-26T02:58:54.570Z,43.23
2019-03-26T02:59:59.042Z,44.60
2019-03-26T03:01:03.541Z,40.88
2019-03-26T03:02:08.342Z,39.00
2019-03-26T03:03:12.816Z,38.63
2019-03-26T03:04:17.276Z,40.12
2019-03-26T03:05:34.273Z,46.65
2019-03-26T03:06:27.941Z,42.40
2019-03-26T03:07:32.411Z,45.80
2019-03-26T03:08:36.951Z,40.75
2019-03-26T03:09:41.786Z,45.78
2019-03-26T03:10:46.627Z,46.25
2019-03-26T03:11:51.166Z,43.70
2019-03-26T03:12:55.635Z,47.60
2019-03-26T03:14:00.104Z,41.33
2019-03-26T03:15:05.830Z,45.00
2019-03-26T03:16:10.318Z,32.85
2019-03-26T03:17:14.804Z,39.13
2019-03-26T03:18:19.275Z,37.25
2019-03-26T03:19:23.740Z,48.28
2019-03-26T03:20:28.243Z,50.30
2019-03-26T03:21:32.751Z,42.48
2019-03-26T03:22:37.556Z,48.83
2019-03-26T03:23:42.039Z,42.78
2019-03-26T03:24:46.890Z,47.38
2019-03-26T03:25:51.387Z,48.10
2019-03-26T03:26:55.882Z,44.98
2019-03-26T03:28:00.320Z,41.63
2019-03-26T03:29:04.785Z,43.42
2019-03-26T03:30:10.751Z,41.33
2019-03-26T03:31:15.252Z,42.17
2019-03-26T03:32:19.728Z,42.05
2019-03-26T03:33:24.537Z,47.58
2019-03-26T03:34:29.006Z,41.35
2019-03-26T03:35:33.483Z,41.25
2019-03-26T03:36:37.974Z,41.65
2019-03-26T03:37:42.448Z,39.05
2019-03-26T03:38:47.297Z,41.08
2019-03-26T03:39:51.763Z,43.40
2019-03-26T03:40:56.262Z,43.48
2019-03-26T03:42:00.724Z,35.78
2019-03-26T03:43:05.554Z,37.48
2019-03-26T03:44:10.327Z,42.13
2019-03-26T03:45:17.966Z,47.10
2019-03-26T03:46:22.979Z,39.58
2019-03-26T03:47:30.875Z,42.85
2019-03-26T03:48:36.481Z,38.45
2019-03-26T03:49:41.309Z,37.85
2019-03-26T03:50:46.767Z,36.60
2019-03-26T03:51:53.163Z,38.45
2019-03-26T03:52:59.828Z,43.17
2019-03-26T03:54:04.431Z,40.90
2019-03-26T03:55:09.241Z,40.45
2019-03-26T03:56:16.944Z,40.85
2019-03-26T03:57:24.009Z,40.80
2019-03-26T03:58:30.040Z,39.58
2019-03-26T03:59:34.844Z,34.50
2019-03-26T04:00:41.553Z,34.65
2019-03-26T04:01:46.043Z,33.55
2019-03-26T04:02:50.515Z,37.55
2019-03-26T04:03:54.977Z,40.10
2019-03-26T04:04:59.450Z,37.20
2019-03-26T04:06:09.454Z,38.40
2019-03-26T04:07:10.116Z,37.85
2019-03-26T04:08:14.581Z,39.53
2019-03-26T04:09:19.051Z,42.98
2019-03-26T04:10:23.519Z,45.88
2019-03-26T04:11:28.314Z,44.93
2019-03-26T04:12:32.786Z,45.05
2019-03-26T04:13:37.600Z,44.03
2019-03-26T04:14:42.357Z,40.65
2019-03-26T04:15:47.150Z,36.60
2019-03-26T04:16:52.059Z,39.75
2019-03-26T04:17:56.532Z,37.42
2019-03-26T04:19:01.292Z,37.53
2019-03-26T04:20:06.100Z,43.08
2019-03-26T04:21:10.977Z,37.23
2019-03-26T04:22:15.481Z,41.95
2019-03-26T04:23:19.996Z,38.85
2019-03-26T04:24:24.458Z,38.63
2019-03-26T04:25:28.920Z,40.45
2019-03-26T04:26:33.420Z,41.48
2019-03-26T04:27:38.065Z,35.83
2019-03-26T04:28:42.514Z,43.83
2019-03-26T04:29:46.990Z,40.52
2019-03-26T04:30:51.444Z,40.67
2019-03-26T04:31:56.259Z,35.83
2019-03-26T04:33:01.078Z,36.55
2019-03-26T04:34:05.556Z,35.23
2019-03-26T04:35:10.125Z,39.65
2019-03-26T04:36:25.481Z,41.28
2019-03-26T04:37:21.215Z,34.85
2019-03-26T04:38:29.141Z,36.70
2019-03-26T04:39:34.122Z,38.45
2019-03-26T04:40:38.683Z,42.35
2019-03-26T04:41:43.155Z,39.18
2019-03-26T04:42:47.611Z,38.42
2019-03-26T04:43:52.367Z,42.67
2019-03-26T04:44:57.233Z,37.10
2019-03-26T04:46:01.955Z,44.83
2019-03-26T04:47:06.478Z,42.98
2019-03-26T04:48:11.027Z,45.80
2019-03-26T04:49:15.487Z,40.38
2019-03-26T04:50:20.188Z,40.23
2019-03-26T04:51:24.687Z,37.03
2019-03-26T04:52:29.147Z,33.88
2019-03-26T04:53:34.336Z,35.88
2019-03-26T04:54:38.898Z,39.70
2019-03-26T04:55:43.464Z,35.08
2019-03-26T04:56:48.348Z,31.07
2019-03-26T04:57:52.812Z,33.35
2019-03-26T04:58:58.310Z,33.20
2019-03-26T05:00:02.830Z,31.62
2019-03-26T05:01:07.431Z,33.20
2019-03-26T05:02:11.946Z,34.50
2019-03-26T05:03:18.045Z,36.33
2019-03-26T05:04:22.495Z,35.55
2019-03-26T05:05:27.146Z,32.65
2019-03-26T05:06:38.004Z,35.40
2019-03-26T05:07:38.453Z,33.28
2019-03-26T05:08:42.923Z,40.38
2019-03-26T05:09:47.749Z,33.65
2019-03-26T05:10:52.226Z,39.18
2019-03-26T05:11:57.161Z,36.63
2019-03-26T05:13:01.631Z,33.10
2019-03-26T05:14:06.104Z,34.38
2019-03-26T05:15:11.598Z,40.73
2019-03-26T05:16:16.321Z,38.85
2019-03-26T05:17:20.975Z,34.38
2019-03-26T05:18:25.505Z,34.43
2019-03-26T05:19:31.034Z,40.23
2019-03-26T05:20:35.546Z,33.67
2019-03-26T05:21:40.323Z,39.35
2019-03-26T05:22:45.200Z,42.50
2019-03-26T05:23:51.894Z,35.65
2019-03-26T05:24:57.149Z,40.40
2019-03-26T05:26:01.610Z,38.98
2019-03-26T05:27:06.090Z,39.35
2019-03-26T05:28:10.554Z,44.35
2019-03-26T05:29:15.116Z,41.80
2019-03-26T05:30:19.565Z,42.38
2019-03-26T05:31:24.041Z,48.63
2019-03-26T05:46:24.144Z,51.88
2019-03-26T05:47:28.683Z,55.95
2019-03-26T05:48:33.549Z,54.18
2019-03-26T05:49:39.088Z,60.78
2019-03-26T05:50:43.560Z,58.05
2019-03-26T05:51:48.050Z,57.60
2019-03-26T05:52:52.924Z,58.90
2019-03-26T05:53:58.786Z,59.53
2019-03-26T05:55:03.315Z,58.75
2019-03-26T05:56:07.779Z,65.95
2019-03-26T05:57:12.248Z,56.25
2019-03-26T05:58:17.031Z,60.10
2019-03-26T05:59:21.499Z,65.65
2019-03-26T06:00:26.148Z,64.58
2019-03-26T06:01:30.900Z,57.65
2019-03-26T06:02:35.393Z,64.58
2019-03-26T06:03:39.858Z,64.25
2019-03-26T06:04:44.340Z,54.80
2019-03-26T06:05:49.161Z,56.53
2019-03-26T06:07:04.293Z,53.75
2019-03-26T06:07:59.955Z,51.35
2019-03-26T06:09:05.767Z,52.75
2019-03-26T06:10:11.349Z,54.38
2019-03-26T06:11:15.823Z,50.83
2019-03-26T06:12:20.312Z,53.52
2019-03-26T06:13:24.811Z,50.38
2019-03-26T06:14:29.270Z,54.90
2019-03-26T06:15:33.748Z,57.67
2019-03-26T06:16:38.894Z,45.08
2019-03-26T06:17:43.533Z,43.02
2019-03-26T06:18:47.998Z,45.17
2019-03-26T06:19:52.903Z,47.05
2019-03-26T06:20:57.372Z,40.30
2019-03-26T06:22:01.932Z,43.75
2019-03-26T06:23:06.936Z,46.50
2019-03-26T06:24:11.424Z,40.35
2019-03-26T06:25:15.963Z,41.85
2019-03-26T06:26:20.583Z,37.35
2019-03-26T06:27:25.234Z,39.40
2019-03-26T06:28:29.860Z,41.25
2019-03-26T06:29:34.660Z,36.50
2019-03-26T06:30:39.809Z,35.60
2019-03-26T06:31:44.634Z,35.33
2019-03-26T06:32:49.185Z,32.33
2019-03-26T06:33:53.934Z,40.90
2019-03-26T06:34:58.421Z,30.35
2019-03-26T06:36:02.953Z,35.48
2019-03-26T06:37:17.385Z,30.65
2019-03-26T06:38:13.606Z,30.08
2019-03-26T06:39:18.077Z,30.80
2019-03-26T06:40:22.949Z,27.93
2019-03-26T06:41:27.406Z,30.08
2019-03-26T06:42:31.892Z,29.07
2019-03-26T06:43:37.392Z,26.70
2019-03-26T06:44:42.130Z,30.15
2019-03-26T06:45:46.596Z,28.52
2019-03-26T06:46:51.067Z,28.40
2019-03-26T06:47:55.562Z,28.05
2019-03-26T06:49:00.150Z,23.35
2019-03-26T06:50:07.568Z,25.30
2019-03-26T06:51:12.037Z,25.27
2019-03-26T06:52:16.740Z,29.10
2019-03-26T06:53:21.220Z,22.93
2019-03-26T06:54:25.687Z,23.75
2019-03-26T06:55:30.146Z,19.23
2019-03-26T06:56:34.849Z,18.00
2019-03-26T06:57:39.316Z,21.60
2019-03-26T06:58:43.816Z,19.40
2019-03-26T06:59:48.273Z,23.45
2019-03-26T07:00:53.191Z,21.27
2019-03-26T07:01:57.728Z,19.95
2019-03-26T07:03:03.828Z,23.60
2019-03-26T07:04:08.928Z,20.27
2019-03-26T07:05:13.631Z,17.07
2019-03-26T07:06:18.108Z,24.50
2019-03-26T07:07:31.349Z,21.45
2019-03-26T07:08:28.821Z,19.57
2019-03-26T07:09:33.314Z,20.92
2019-03-26T07:10:37.964Z,18.00
2019-03-26T07:11:42.414Z,25.97
2019-03-26T07:12:46.874Z,21.30
2019-03-26T07:13:51.758Z,21.20
2019-03-26T07:14:56.222Z,19.02
2019-03-26T07:16:00.693Z,25.52
2019-03-26T07:17:05.161Z,21.95
2019-03-26T07:18:09.926Z,11.68
2019-03-26T07:19:14.407Z,19.50
2019-03-26T07:20:19.037Z,20.77
2019-03-26T07:21:23.494Z,18.45
2019-03-26T07:22:28.360Z,18.52
2019-03-26T07:23:33.909Z,18.07
2019-03-26T07:24:38.390Z,20.92
2019-03-26T07:25:42.862Z,15.10
2019-03-26T07:26:47.378Z,15.40
2019-03-26T07:27:52.261Z,12.55
2019-03-26T07:28:56.999Z,10.65
2019-03-26T07:30:01.460Z,17.35
2019-03-26T07:31:05.987Z,19.52
2019-03-26T07:32:10.745Z,18.62
2019-03-26T07:33:15.351Z,14.25
2019-03-26T07:34:20.202Z,18.95
2019-03-26T07:35:24.646Z,14.20
2019-03-26T07:36:29.113Z,15.55
2019-03-26T07:37:44.619Z,13.98
2019-03-26T07:38:40.067Z,13.85
2019-03-26T07:39:44.551Z,15.43
2019-03-26T07:40:49.030Z,17.37
2019-03-26T07:41:53.886Z,21.90
2019-03-26T07:42:58.682Z,17.85
2019-03-26T07:44:03.452Z,16.57
2019-03-26T07:45:08.578Z,12.05
2019-03-26T07:46:13.041Z,12.03
2019-03-26T07:47:17.502Z,17.05
2019-03-26T07:48:21.957Z,12.70
2019-03-26T07:49:26.441Z,13.40
2019-03-26T07:50:30.910Z,10.65
2019-03-26T07:51:35.373Z,21.70
2019-03-26T07:52:39.851Z,16.67
2019-03-26T07:53:44.318Z,10.48
2019-03-26T07:54:49.089Z,18.35
2019-03-26T07:55:53.571Z,17.00
2019-03-26T07:56:58.471Z,17.95
2019-03-26T07:58:03.423Z,12.07
2019-03-26T07:59:07.985Z,18.62
2019-03-26T08:00:13.403Z,15.55
2019-03-26T08:01:18.109Z,37.30
2019-03-26T08:02:22.564Z,17.52
2019-03-26T08:03:27.023Z,16.10
2019-03-26T08:04:31.922Z,15.80
2019-03-26T08:05:36.771Z,12.00
2019-03-26T08:06:41.528Z,13.05
2019-03-26T08:07:57.777Z,13.75
2019-03-26T08:08:52.545Z,14.50
2019-03-26T08:09:57.376Z,18.23
2019-03-26T08:11:01.817Z,18.77
2019-03-26T08:12:06.280Z,11.68
2019-03-26T08:13:10.774Z,16.25
2019-03-26T08:14:15.248Z,18.42
2019-03-26T08:15:20.344Z,17.75
2019-03-26T08:16:25.404Z,13.45
2019-03-26T08:17:29.819Z,26.33
2019-03-26T08:18:34.280Z,11.10
2019-03-26T08:19:38.762Z,8.98
2019-03-26T08:20:43.230Z,12.90
2019-03-26T08:21:47.696Z,15.00
2019-03-26T08:22:52.161Z,16.07
2019-03-26T08:23:56.621Z,14.58
2019-03-26T08:25:01.108Z,16.42
2019-03-26T08:26:06.630Z,14.05
2019-03-26T08:27:11.176Z,27.17
2019-03-26T08:28:15.627Z,13.15
2019-03-26T08:29:20.092Z,25.15
2019-03-26T08:30:24.586Z,15.23
2019-03-26T08:31:29.113Z,15.20
2019-03-26T08:32:33.568Z,16.93
2019-03-26T08:33:38.034Z,11.75
2019-03-26T08:34:42.544Z,13.85
2019-03-26T08:35:47.005Z,17.62
2019-03-26T08:36:51.471Z,15.72
2019-03-26T08:37:55.918Z,24.77
2019-03-26T08:39:00.451Z,22.65
2019-03-26T08:40:08.373Z,19.65
2019-03-26T08:41:12.826Z,15.23
2019-03-26T08:42:17.571Z,15.32
2019-03-26T08:43:22.041Z,20.60
2019-03-26T08:44:26.518Z,13.88
2019-03-26T08:45:31.014Z,19.90
2019-03-26T08:46:35.747Z,11.18
2019-03-26T08:47:40.229Z,12.60
2019-03-26T08:48:45.044Z,15.75
2019-03-26T08:49:49.522Z,14.43
2019-03-26T08:50:53.997Z,14.70
2019-03-26T08:51:58.887Z,14.47
2019-03-26T08:53:03.335Z,11.75
2019-03-26T08:54:07.798Z,18.80
2019-03-26T08:55:13.031Z,12.75
2019-03-26T08:56:17.555Z,11.18
2019-03-26T08:57:22.405Z,15.88
2019-03-26T08:58:26.921Z,12.47
2019-03-26T08:59:31.483Z,11.53
2019-03-26T09:00:35.965Z,13.22
2019-03-26T09:01:40.818Z,18.40
2019-03-26T09:02:45.307Z,15.55
2019-03-26T09:03:49.760Z,18.17
2019-03-26T09:04:54.247Z,15.00
2019-03-26T09:05:58.886Z,13.15
2019-03-26T09:07:03.357Z,16.93
2019-03-26T09:08:08.209Z,10.30
2019-03-26T09:09:13.049Z,19.45
2019-03-26T09:10:17.678Z,10.63
2019-03-26T09:11:22.151Z,14.30
2019-03-26T09:12:26.612Z,32.15
2019-03-26T09:13:31.089Z,21.12
2019-03-26T09:14:35.547Z,9.43
2019-03-26T09:15:40.403Z,33.13
2019-03-26T09:16:44.875Z,13.40
2019-03-26T09:17:49.335Z,13.80
2019-03-26T09:18:54.185Z,13.28
2019-03-26T09:19:58.663Z,12.85
2019-03-26T09:21:03.150Z,17.45
2019-03-26T09:22:07.627Z,18.73
2019-03-26T09:23:12.583Z,22.07
2019-03-26T09:24:17.119Z,13.10
2019-03-26T09:25:21.725Z,18.37
2019-03-26T09:26:26.231Z,10.82
2019-03-26T09:27:30.672Z,60.88
2019-03-26T09:28:35.149Z,44.08
2019-03-26T09:29:39.719Z,9.70
2019-03-26T09:30:44.246Z,29.40
2019-03-26T09:31:48.709Z,12.70
2019-03-26T09:32:53.186Z,18.17
2019-03-26T09:33:58.036Z,26.02
2019-03-26T09:35:02.784Z,51.50
2019-03-26T09:36:07.266Z,17.70
2019-03-26T09:37:11.727Z,28.20
2019-03-26T09:38:16.188Z,13.62
2019-03-26T09:39:21.624Z,11.48
2019-03-26T09:40:26.179Z,8.10
2019-03-26T09:41:31.336Z,13.43
2019-03-26T09:42:37.589Z,15.13
2019-03-26T09:43:42.046Z,27.67
2019-03-26T09:44:46.505Z,20.43
2019-03-26T09:45:51.046Z,44.33
2019-03-26T09:46:55.525Z,28.55
2019-03-26T09:47:59.999Z,14.87
2019-03-26T09:49:04.471Z,10.50
2019-03-26T09:50:11.298Z,57.73
2019-03-26T09:51:15.778Z,27.45
2019-03-26T09:52:20.235Z,9.03
2019-03-26T09:53:25.677Z,20.32
2019-03-26T09:54:30.447Z,16.60
2019-03-26T09:55:34.982Z,14.90
2019-03-26T09:56:39.886Z,25.88
2019-03-26T09:57:44.341Z,31.30
2019-03-26T09:58:48.869Z,37.70
2019-03-26T09:59:53.342Z,23.75
2019-03-26T10:00:57.814Z,16.73
2019-03-26T10:02:02.303Z,12.15
2019-03-26T10:03:06.765Z,16.77
2019-03-26T10:04:11.303Z,18.27
2019-03-26T10:05:15.768Z,17.90
2019-03-26T10:06:23.725Z,18.50
2019-03-26T10:07:26.745Z,8.85
2019-03-26T10:08:31.282Z,10.90
2019-03-26T10:09:35.751Z,11.48
2019-03-26T10:10:41.312Z,22.77
2019-03-26T10:11:45.864Z,13.98
2019-03-26T10:12:50.328Z,21.70
2019-03-26T10:13:54.788Z,10.78
2019-03-26T10:14:59.554Z,33.35
2019-03-26T10:16:04.520Z,64.45
2019-03-26T10:17:10.317Z,12.28
2019-03-26T10:18:14.772Z,18.48
2019-03-26T10:19:19.246Z,11.75
2019-03-26T10:20:23.706Z,143.35
2019-03-26T10:21:28.183Z,14.78
2019-03-26T10:22:32.671Z,33.48
2019-03-26T10:23:37.125Z,22.93
2019-03-26T10:24:41.584Z,15.25
2019-03-26T10:25:46.420Z,14.18
2019-03-26T10:26:51.238Z,18.87
2019-03-26T10:27:56.663Z,11.70
2019-03-26T10:29:15.095Z,16.85
2019-03-26T10:30:11.110Z,18.45
2019-03-26T10:31:15.571Z,20.20
2019-03-26T10:32:20.111Z,9.40
2019-03-26T10:33:24.568Z,24.85
2019-03-26T10:34:29.034Z,11.55
2019-03-26T10:35:33.634Z,18.70
2019-03-26T10:36:41.460Z,12.37
2019-03-26T10:37:45.122Z,16.30
2019-03-26T10:38:49.858Z,15.75
2019-03-26T10:39:54.716Z,22.48
2019-03-26T10:40:59.567Z,23.15
2019-03-26T10:42:06.922Z,18.00
2019-03-26T10:43:10.509Z,21.62
2019-03-26T10:44:15.815Z,13.80
2019-03-26T10:45:20.257Z,10.05
2019-03-26T10:46:24.725Z,20.90
2019-03-26T10:47:29.608Z,9.60
2019-03-26T10:48:34.072Z,12.33
2019-03-26T10:49:38.542Z,14.35
2019-03-26T10:50:42.998Z,12.33
2019-03-26T10:51:47.463Z,9.38
2019-03-26T10:52:51.960Z,15.38
2019-03-26T10:53:56.410Z,12.00
2019-03-26T10:55:01.264Z,7.78
2019-03-26T10:56:07.219Z,6.65
2019-03-26T10:57:11.680Z,12.73
2019-03-26T10:58:16.445Z,20.23
2019-03-26T10:59:20.902Z,13.90
2019-03-26T11:00:25.709Z,12.47
2019-03-26T11:01:30.237Z,13.10
2019-03-26T11:02:34.720Z,13.68
2019-03-26T11:03:39.791Z,16.48
2019-03-26T11:04:44.635Z,11.57
2019-03-26T11:05:49.473Z,13.08
2019-03-26T11:06:55.008Z,10.65
2019-03-26T11:07:59.492Z,11.70
2019-03-26T11:09:18.874Z,11.57
2019-03-26T11:10:11.804Z,13.43
2019-03-26T11:11:16.552Z,13.43
2019-03-26T11:12:21.298Z,12.80
2019-03-26T11:13:25.783Z,10.35
2019-03-26T11:14:31.965Z,18.65
2019-03-26T11:15:36.831Z,10.68
2019-03-26T11:16:41.414Z,8.98
2019-03-26T11:17:46.301Z,9.20
2019-03-26T11:18:50.776Z,8.25
2019-03-26T11:19:56.189Z,11.05
2019-03-26T11:21:03.029Z,15.08
2019-03-26T11:22:06.887Z,9.80
2019-03-26T11:23:11.400Z,10.75
2019-03-26T11:24:15.835Z,11.38
2019-03-26T11:25:20.619Z,10.65
2019-03-26T11:26:25.459Z,10.88
2019-03-26T11:27:30.211Z,9.50
2019-03-26T11:28:35.003Z,9.68
2019-03-26T11:29:39.451Z,8.75
2019-03-26T11:30:44.304Z,7.40
2019-03-26T11:31:48.759Z,9.45
2019-03-26T11:32:53.579Z,10.00
2019-03-26T11:33:59.591Z,9.35
2019-03-26T11:35:08.296Z,5.62
2019-03-26T11:36:12.754Z,7.28
2019-03-26T11:37:17.293Z,5.55
2019-03-26T11:38:21.792Z,7.70
2019-03-26T11:39:32.539Z,7.62
2019-03-26T11:40:32.748Z,5.75
2019-03-26T11:41:37.286Z,5.12
2019-03-26T11:42:41.742Z,5.05
2019-03-26T11:43:46.547Z,5.03
2019-03-26T11:44:51.042Z,6.25
2019-03-26T11:45:55.504Z,7.40
2019-03-26T11:47:01.389Z,7.45
2019-03-26T11:48:05.812Z,8.90
2019-03-26T11:49:10.284Z,4.90
2019-03-26T11:50:15.173Z,7.47
2019-03-26T11:51:19.633Z,5.12
2019-03-26T11:52:24.493Z,5.20
2019-03-26T11:53:29.308Z,6.03
2019-03-26T11:54:33.764Z,5.70
2019-03-26T11:55:38.558Z,11.12
2019-03-26T11:56:43.357Z,8.40
2019-03-26T11:57:47.826Z,9.93
2019-03-26T11:58:52.298Z,5.95
2019-03-26T11:59:57.731Z,9.75
2019-03-26T12:01:02.195Z,6.90
2019-03-26T12:02:08.387Z,3.95
2019-03-26T12:03:12.842Z,8.40
2019-03-26T12:04:17.321Z,12.23
2019-03-26T12:05:21.797Z,8.65
2019-03-26T12:06:26.636Z,9.65
2019-03-26T12:07:31.460Z,16.73
2019-03-26T12:08:36.277Z,9.25
2019-03-26T12:09:46.444Z,9.10
2019-03-26T12:10:48.267Z,7.87
2019-03-26T12:11:52.723Z,16.77
2019-03-26T12:12:57.198Z,9.28
2019-03-26T12:14:02.114Z,19.32
2019-03-26T12:15:11.062Z,11.57
2019-03-26T12:16:15.535Z,15.60
2019-03-26T12:17:20.371Z,7.78
2019-03-26T12:18:24.825Z,5.03
2019-03-26T12:19:29.308Z,22.82
2019-03-26T12:20:34.043Z,8.70
2019-03-26T12:21:39.081Z,22.52
2019-03-26T12:22:43.540Z,10.38
2019-03-26T12:23:47.996Z,8.83
2019-03-26T12:24:52.545Z,8.05
2019-03-26T12:25:57.003Z,9.65
2019-03-26T12:27:02.430Z,7.20
2019-03-26T12:28:06.961Z,4.30
2019-03-26T12:29:11.423Z,21.20
2019-03-26T12:30:18.946Z,8.03
2019-03-26T12:31:23.472Z,14.15
2019-03-26T12:32:28.265Z,28.17
2019-03-26T12:33:32.728Z,12.58
2019-03-26T12:34:39.010Z,10.05
2019-03-26T12:35:45.514Z,14.13
2019-03-26T12:36:49.993Z,18.12
2019-03-26T12:37:54.805Z,6.97
2019-03-26T12:38:59.340Z,11.38
2019-03-26T12:40:07.617Z,5.90
2019-03-26T12:41:12.375Z,6.80
2019-03-26T12:42:16.824Z,6.17
2019-03-26T12:43:21.356Z,5.85
2019-03-26T12:44:26.100Z,7.80
2019-03-26T12:45:30.893Z,7.37
2019-03-26T12:46:37.288Z,8.10
2019-03-26T12:47:41.766Z,4.67
2019-03-26T12:48:49.312Z,3.05
2019-03-26T12:49:53.861Z,5.75
2019-03-26T12:50:58.313Z,13.08
2019-03-26T12:52:02.773Z,7.08
2019-03-26T12:53:07.522Z,16.60
2019-03-26T12:54:11.986Z,6.33
2019-03-26T12:55:17.121Z,8.38
2019-03-26T12:56:21.588Z,12.07
2019-03-26T12:57:27.369Z,3.62
2019-03-26T12:58:36.234Z,15.10
2019-03-26T12:59:38.795Z,29.75
2019-03-26T13:00:43.329Z,29.42
2019-03-26T13:01:47.861Z,25.10
2019-03-26T13:02:52.604Z,30.57
2019-03-26T13:03:57.052Z,20.90
2019-03-26T13:05:01.572Z,11.25
2019-03-26T13:06:06.592Z,65.10
2019-03-26T13:07:12.648Z,25.72
2019-03-26T13:08:18.896Z,10.93
2019-03-26T13:09:23.513Z,6.33
2019-03-26T13:10:28.432Z,5.60
2019-03-26T13:11:33.169Z,6.80
2019-03-26T13:12:37.939Z,5.80
2019-03-26T13:13:42.517Z,5.22
2019-03-26T13:14:47.299Z,8.13
2019-03-26T13:15:51.849Z,6.25
2019-03-26T13:16:56.295Z,7.85
2019-03-26T13:18:00.755Z,10.32
2019-03-26T13:19:06.041Z,7.47
2019-03-26T13:20:10.901Z,8.33
2019-03-26T13:21:15.422Z,9.15
2019-03-26T13:22:20.429Z,8.25
2019-03-26T13:23:25.332Z,5.08
2019-03-26T13:24:29.811Z,12.50
2019-03-26T13:25:35.443Z,9.15
2019-03-26T13:26:39.978Z,9.40
2019-03-26T13:27:44.437Z,6.70
2019-03-26T13:28:48.908Z,7.67
2019-03-26T13:29:53.420Z,6.20
2019-03-26T13:30:57.898Z,6.80
2019-03-26T13:32:02.354Z,10.43
2019-03-26T13:33:06.812Z,6.72
2019-03-26T13:34:11.259Z,9.15
2019-03-26T13:35:15.872Z,6.62
2019-03-26T13:36:20.325Z,6.58
2019-03-26T13:37:24.798Z,7.78
2019-03-26T13:38:29.634Z,8.78
2019-03-26T13:39:34.397Z,7.00
2019-03-26T13:40:38.944Z,7.67
2019-03-26T13:41:44.093Z,6.78
2019-03-26T13:42:48.557Z,7.33
2019-03-26T13:43:53.024Z,6.47
2019-03-26T13:44:57.497Z,7.72
2019-03-26T13:46:01.974Z,6.00
2019-03-26T13:47:06.427Z,7.17
2019-03-26T13:48:10.885Z,9.03
2019-03-26T13:49:15.423Z,4.58
2019-03-26T13:50:20.652Z,8.43
2019-03-26T13:51:25.123Z,9.75
2019-03-26T13:52:29.590Z,5.58
2019-03-26T13:53:34.082Z,12.43
2019-03-26T13:54:38.544Z,4.47
2019-03-26T13:55:42.985Z,7.10
2019-03-26T13:56:47.476Z,9.25
2019-03-26T13:57:51.931Z,4.00
2019-03-26T13:58:56.388Z,4.47
2019-03-26T14:00:01.230Z,5.50
2019-03-26T14:01:06.127Z,9.13
2019-03-26T14:02:10.591Z,7.65
2019-03-26T14:03:15.035Z,8.53
2019-03-26T14:04:19.873Z,9.30
2019-03-26T14:05:26.144Z,8.48
2019-03-26T14:06:32.425Z,7.22
2019-03-26T14:07:37.036Z,5.62
2019-03-26T14:08:41.812Z,7.72
2019-03-26T14:09:46.263Z,6.65
2019-03-26T14:10:50.719Z,7.75
2019-03-26T14:11:57.720Z,5.05
2019-03-26T14:13:01.704Z,7.08